Time,TemperatureF,DewpointF,PressureIn,WindDirection,WindDirectionDegrees,WindSpeedMPH,WindSpeedGustMPH,Humidity,HourlyPrecipIn,Conditions,Clouds,dailyrainin,SoftwareType,DateUTC
2013-02-10 00:03:00,45.5,43.0,29.63,SSW,196,0.0,-999.0,89,-99.99,,,0.01,weatherlink.com 1.10,2013-02-10 00:03:00,
2013-02-10 00:18:00,45.4,42.0,29.62,SSW,196,0.0,-999.0,89,-99.99,,,0.01,weatherlink.com 1.10,2013-02-10 00:18:00,
2013-02-10 00:33:00,45.3,43.0,29.61,SSW,196,0.0,-999.0,90,-99.99,,,0.03,weatherlink.com 1.10,2013-02-10 00:33:00,
2013-02-10 00:48:00,45.2,43.0,29.60,SSW,196,0.0,-999.0,90,-99.99,,,0.05,weatherlink.com 1.10,2013-02-10 00:48:00,
2013-02-10 01:04:00,45.0,42.0,29.59,SSW,195,0.0,-999.0,90,-99.99,,,0.07,weatherlink.com 1.10,2013-02-10 01:04:00,
2013-02-10 01:19:00,45.0,43.0,29.58,SSW,192,0.0,-999.0,91,-99.99,,,0.09,weatherlink.com 1.10,2013-02-10 01:19:00,
2013-02-10 01:34:00,45.1,43.0,29.57,ESE,112,0.0,-999.0,92,-99.99,,,0.10,weatherlink.com 1.10,2013-02-10 01:34:00,
2013-02-10 01:49:00,45.2,43.0,29.56,ESE,113,0.0,-999.0,92,-99.99,,,0.11,weatherlink.com 1.10,2013-02-10 01:49:00,
2013-02-10 02:04:00,45.2,43.0,29.54,East,101,0.0,-999.0,92,-99.99,,,0.12,weatherlink.com 1.10,2013-02-10 02:04:00,
2013-02-10 02:19:00,45.1,43.0,29.53,ESE,110,0.0,-999.0,93,-99.99,,,0.13,weatherlink.com 1.10,2013-02-10 02:19:00,
2013-02-10 02:34:00,45.1,43.0,29.52,ESE,120,0.0,-999.0,93,-99.99,,,0.13,weatherlink.com 1.10,2013-02-10 02:34:00,
2013-02-10 02:49:00,45.0,43.0,29.50,ESE,113,0.0,-999.0,93,-99.99,,,0.15,weatherlink.com 1.10,2013-02-10 02:49:00,
2013-02-10 03:04:00,45.0,43.0,29.49,ESE,113,0.0,-999.0,93,-99.99,,,0.16,weatherlink.com 1.10,2013-02-10 03:04:00,
2013-02-10 03:19:00,45.1,44.0,29.47,ESE,113,0.0,-999.0,94,-99.99,,,0.18,weatherlink.com 1.10,2013-02-10 03:19:00,
2013-02-10 03:34:00,45.2,44.0,29.46,ESE,113,0.0,-999.0,94,-99.99,,,0.20,weatherlink.com 1.10,2013-02-10 03:34:00,
2013-02-10 03:49:00,45.3,44.0,29.45,East,96,0.0,-999.0,94,-99.99,,,0.22,weatherlink.com 1.10,2013-02-10 03:49:00,
2013-02-10 04:04:00,45.4,44.0,29.43,ESE,103,0.0,-999.0,94,-99.99,,,0.23,weatherlink.com 1.10,2013-02-10 04:04:00,
2013-02-10 04:19:00,45.4,44.0,29.42,SE,127,0.0,-999.0,94,-99.99,,,0.24,weatherlink.com 1.10,2013-02-10 04:19:00,
2013-02-10 04:34:00,45.6,44.0,29.41,SSE,165,0.0,-999.0,94,-99.99,,,0.25,weatherlink.com 1.10,2013-02-10 04:34:00,
2013-02-10 04:49:00,45.7,44.0,29.39,SSE,163,0.0,-999.0,95,-99.99,,,0.26,weatherlink.com 1.10,2013-02-10 04:49:00,
2013-02-10 05:04:00,45.9,45.0,29.39,SSE,155,0.0,-999.0,95,-99.99,,,0.27,weatherlink.com 1.10,2013-02-10 05:04:00,
2013-02-10 05:19:00,45.9,45.0,29.38,South,172,0.0,-999.0,95,-99.99,,,0.27,weatherlink.com 1.10,2013-02-10 05:19:00,
2013-02-10 05:34:00,46.0,45.0,29.37,SSE,155,0.0,-999.0,95,-99.99,,,0.28,weatherlink.com 1.10,2013-02-10 05:34:00,
2013-02-10 05:49:00,45.9,45.0,29.36,South,186,0.0,-999.0,95,-99.99,,,0.29,weatherlink.com 1.10,2013-02-10 05:49:00,
2013-02-10 06:04:00,-999.0,-99.9,29.35,North,-999,-999.0,-999.0,-999,-99.99,,,0.29,weatherlink.com 1.10,2013-02-10 06:04:00,
2013-02-10 06:19:00,-999.0,-99.9,29.34,North,-999,-999.0,-999.0,-999,-99.99,,,0.29,weatherlink.com 1.10,2013-02-10 06:19:00,
2013-02-10 06:34:00,-999.0,-99.9,29.34,North,-999,-999.0,-999.0,-999,-99.99,,,0.29,weatherlink.com 1.10,2013-02-10 06:34:00,
2013-02-10 06:50:00,-999.0,-99.9,29.33,North,-999,-999.0,-999.0,-999,-99.99,,,0.29,weatherlink.com 1.10,2013-02-10 06:50:00,
2013-02-10 07:05:00,-999.0,-99.9,29.32,North,-999,-999.0,-999.0,-999,-99.99,,,0.29,weatherlink.com 1.10,2013-02-10 07:05:00,
2013-02-10 07:20:00,-999.0,-99.9,29.32,North,-999,-999.0,-999.0,-999,-99.99,,,0.29,weatherlink.com 1.10,2013-02-10 07:20:00,
2013-02-10 07:35:00,-999.0,-99.9,29.31,North,-999,-999.0,-999.0,-999,-99.99,,,0.29,weatherlink.com 1.10,2013-02-10 07:35:00,
2013-02-10 07:50:00,-999.0,-99.9,29.30,North,-999,-999.0,-999.0,-999,-99.99,,,0.29,weatherlink.com 1.10,2013-02-10 07:50:00,
2013-02-10 08:05:00,-999.0,-99.9,29.30,North,-999,-999.0,-999.0,-999,-99.99,,,0.29,weatherlink.com 1.10,2013-02-10 08:05:00,
2013-02-10 08:20:00,-999.0,-99.9,29.29,North,-999,-999.0,-999.0,-999,-99.99,,,0.29,weatherlink.com 1.10,2013-02-10 08:20:00,
2013-02-10 08:35:00,-999.0,-99.9,29.29,North,-999,-999.0,-999.0,-999,-99.99,,,0.29,weatherlink.com 1.10,2013-02-10 08:35:00,
2013-02-10 08:50:00,-999.0,-99.9,29.28,North,-999,-999.0,-999.0,-999,-99.99,,,0.29,weatherlink.com 1.10,2013-02-10 08:50:00,
2013-02-10 09:05:00,-999.0,-99.9,29.27,North,-999,-999.0,-999.0,-999,-99.99,,,0.29,weatherlink.com 1.10,2013-02-10 09:05:00,
2013-02-10 09:20:00,-999.0,-99.9,29.27,North,-999,-999.0,-999.0,-999,-99.99,,,0.29,weatherlink.com 1.10,2013-02-10 09:20:00,
2013-02-10 09:35:00,-999.0,-99.9,29.27,North,-999,-999.0,-999.0,-999,-99.99,,,0.29,weatherlink.com 1.10,2013-02-10 09:35:00,
2013-02-10 09:50:00,-999.0,-99.9,29.27,North,-999,-999.0,-999.0,-999,-99.99,,,0.00,weatherlink.com 1.10,2013-02-10 09:50:00,
2013-02-10 10:05:00,-999.0,-99.9,29.26,North,-999,-999.0,-999.0,-999,-99.99,,,0.00,weatherlink.com 1.10,2013-02-10 10:05:00,
2013-02-10 10:21:00,44.2,43.0,29.26,West,278,0.0,-999.0,95,-99.99,,,0.00,weatherlink.com 1.10,2013-02-10 10:21:00,
2013-02-10 10:36:00,44.0,43.0,29.25,WNW,293,0.0,-999.0,95,-99.99,,,0.00,weatherlink.com 1.10,2013-02-10 10:36:00,
2013-02-10 10:51:00,44.0,43.0,29.25,NW,317,0.0,-999.0,95,-99.99,,,0.00,weatherlink.com 1.10,2013-02-10 10:51:00,
2013-02-10 11:06:00,43.9,43.0,29.25,WNW,302,0.0,-999.0,95,-99.99,,,0.00,weatherlink.com 1.10,2013-02-10 11:06:00,
2013-02-10 11:21:00,43.8,43.0,29.25,NNW,328,0.0,-999.0,95,-99.99,,,0.00,weatherlink.com 1.10,2013-02-10 11:21:00,
2013-02-10 11:36:00,43.6,42.0,29.24,WNW,303,0.0,-999.0,94,-99.99,,,0.00,weatherlink.com 1.10,2013-02-10 11:36:00,
2013-02-10 11:51:00,43.4,42.0,29.23,NW,325,0.0,-999.0,94,-99.99,,,0.01,weatherlink.com 1.10,2013-02-10 11:51:00,
2013-02-10 12:06:00,43.5,42.0,29.23,West,263,0.0,-999.0,94,-99.99,,,0.01,weatherlink.com 1.10,2013-02-10 12:06:00,
2013-02-10 12:21:00,43.7,42.0,29.22,NW,312,0.0,-999.0,94,-99.99,,,0.01,weatherlink.com 1.10,2013-02-10 12:21:00,
2013-02-10 12:36:00,43.6,42.0,29.22,NW,309,0.0,-999.0,93,-99.99,,,0.01,weatherlink.com 1.10,2013-02-10 12:36:00,
2013-02-10 12:51:00,43.6,42.0,29.22,NW,305,0.0,-999.0,93,-99.99,,,0.01,weatherlink.com 1.10,2013-02-10 12:51:00,
2013-02-10 13:06:00,43.6,42.0,29.21,NW,306,0.0,-999.0,93,-99.99,,,0.02,weatherlink.com 1.10,2013-02-10 13:06:00,
2013-02-10 13:21:00,43.5,42.0,29.20,NW,317,0.0,-999.0,93,-99.99,,,0.02,weatherlink.com 1.10,2013-02-10 13:21:00,
2013-02-10 13:36:00,43.5,42.0,29.20,WNW,290,0.0,-999.0,93,-99.99,,,0.04,weatherlink.com 1.10,2013-02-10 13:36:00,
2013-02-10 13:51:00,43.4,42.0,29.20,NW,313,0.0,-999.0,93,-99.99,,,0.04,weatherlink.com 1.10,2013-02-10 13:51:00,
2013-02-10 14:06:00,43.4,42.0,29.19,NW,309,0.0,-999.0,93,-99.99,,,0.05,weatherlink.com 1.10,2013-02-10 14:06:00,
2013-02-10 14:36:00,43.1,41.0,29.19,North,350,0.0,-999.0,91,-99.99,,,0.07,weatherlink.com 1.10,2013-02-10 14:36:00,
2013-02-10 14:51:00,43.0,41.0,29.18,NNW,330,0.0,-999.0,92,-99.99,,,0.08,weatherlink.com 1.10,2013-02-10 14:51:00,
2013-02-10 15:06:00,43.0,41.0,29.17,NNW,329,0.0,-999.0,92,-99.99,,,0.09,weatherlink.com 1.10,2013-02-10 15:06:00,
2013-02-10 15:21:00,43.0,41.0,29.17,WNW,296,0.0,-999.0,92,-99.99,,,0.10,weatherlink.com 1.10,2013-02-10 15:21:00,
2013-02-10 15:36:00,42.9,41.0,29.17,NW,318,0.0,-999.0,92,-99.99,,,0.12,weatherlink.com 1.10,2013-02-10 15:36:00,
2013-02-10 15:51:00,42.7,41.0,29.17,NW,312,0.0,-999.0,92,-99.99,,,0.12,weatherlink.com 1.10,2013-02-10 15:51:00,
2013-02-10 16:06:00,42.6,41.0,29.16,NW,304,0.0,-999.0,92,-99.99,,,0.14,weatherlink.com 1.10,2013-02-10 16:06:00,
2013-02-10 16:21:00,42.5,40.0,29.17,NW,313,0.0,-999.0,92,-99.99,,,0.14,weatherlink.com 1.10,2013-02-10 16:21:00,
2013-02-10 16:36:00,42.3,40.0,29.17,NW,325,0.0,-999.0,92,-99.99,,,0.16,weatherlink.com 1.10,2013-02-10 16:36:00,
2013-02-10 16:51:00,42.3,40.0,29.16,NW,317,0.0,-999.0,92,-99.99,,,0.17,weatherlink.com 1.10,2013-02-10 16:51:00,
2013-02-10 17:06:00,42.4,40.0,29.16,NW,309,0.0,-999.0,92,-99.99,,,0.18,weatherlink.com 1.10,2013-02-10 17:06:00,
2013-02-10 17:21:00,42.1,40.0,29.16,WNW,297,0.0,-999.0,92,-99.99,,,0.19,weatherlink.com 1.10,2013-02-10 17:21:00,
2013-02-10 17:36:00,41.8,40.0,29.16,WNW,298,0.0,-999.0,92,-99.99,,,0.19,weatherlink.com 1.10,2013-02-10 17:36:00,
2013-02-10 17:51:00,41.6,39.0,29.16,WNW,294,0.0,-999.0,90,-99.99,,,0.20,weatherlink.com 1.10,2013-02-10 17:51:00,
2013-02-10 18:06:00,41.6,39.0,29.16,NW,319,0.0,-999.0,90,-99.99,,,0.20,weatherlink.com 1.10,2013-02-10 18:06:00,
2013-02-10 18:21:00,41.5,39.0,29.16,NW,315,0.0,-999.0,90,-99.99,,,0.20,weatherlink.com 1.10,2013-02-10 18:21:00,
2013-02-10 18:36:00,41.4,39.0,29.15,NW,309,0.0,-999.0,90,-99.99,,,0.20,weatherlink.com 1.10,2013-02-10 18:36:00,
2013-02-10 18:51:00,41.2,39.0,29.15,NW,309,0.0,-999.0,91,-99.99,,,0.21,weatherlink.com 1.10,2013-02-10 18:51:00,
2013-02-10 19:06:00,41.2,39.0,29.15,WNW,285,0.0,-999.0,92,-99.99,,,0.22,weatherlink.com 1.10,2013-02-10 19:06:00,
2013-02-10 19:21:00,41.2,39.0,29.16,NNW,336,0.0,-999.0,92,-99.99,,,0.23,weatherlink.com 1.10,2013-02-10 19:21:00,
2013-02-10 19:36:00,41.4,40.0,29.16,NNW,337,0.0,-999.0,93,-99.99,,,0.24,weatherlink.com 1.10,2013-02-10 19:36:00,
2013-02-10 19:51:00,41.4,40.0,29.16,NW,313,0.0,-999.0,93,-99.99,,,0.25,weatherlink.com 1.10,2013-02-10 19:51:00,
2013-02-10 20:06:00,41.2,39.0,29.16,NNW,347,0.0,-999.0,93,-99.99,,,0.26,weatherlink.com 1.10,2013-02-10 20:06:00,
2013-02-10 20:21:00,41.0,39.0,29.16,NNW,330,0.0,-999.0,94,-99.99,,,0.26,weatherlink.com 1.10,2013-02-10 20:21:00,
2013-02-10 20:36:00,41.1,40.0,29.17,WNW,298,0.0,-999.0,94,-99.99,,,0.26,weatherlink.com 1.10,2013-02-10 20:36:00,
2013-02-10 20:51:00,41.0,39.0,29.17,NW,305,0.0,-999.0,94,-99.99,,,0.27,weatherlink.com 1.10,2013-02-10 20:51:00,
2013-02-10 21:06:00,40.9,39.0,29.16,WNW,302,0.0,-999.0,94,-99.99,,,0.27,weatherlink.com 1.10,2013-02-10 21:06:00,
2013-02-10 21:22:00,40.8,39.0,29.17,NW,305,0.0,-999.0,94,-99.99,,,0.27,weatherlink.com 1.10,2013-02-10 21:22:00,
2013-02-10 21:36:00,40.9,39.0,29.17,WNW,297,0.0,-999.0,94,-99.99,,,0.27,weatherlink.com 1.10,2013-02-10 21:36:00,
2013-02-10 21:52:00,41.0,39.0,29.16,WNW,296,0.0,-999.0,94,-99.99,,,0.27,weatherlink.com 1.10,2013-02-10 21:52:00,
2013-02-10 22:06:00,41.1,40.0,29.16,WNW,296,0.0,-999.0,94,-99.99,,,0.27,weatherlink.com 1.10,2013-02-10 22:06:00,
2013-02-10 22:22:00,41.1,40.0,29.17,WNW,296,0.0,-999.0,94,-99.99,,,0.27,weatherlink.com 1.10,2013-02-10 22:22:00,
2013-02-10 22:37:00,41.1,40.0,29.17,WNW,298,0.0,-999.0,94,-99.99,,,0.27,weatherlink.com 1.10,2013-02-10 22:37:00,
2013-02-10 22:52:00,41.1,40.0,29.17,WNW,300,0.0,-999.0,94,-99.99,,,0.27,weatherlink.com 1.10,2013-02-10 22:52:00,
2013-02-10 23:07:00,41.2,40.0,29.18,WNW,300,0.0,-999.0,94,-99.99,,,0.27,weatherlink.com 1.10,2013-02-10 23:07:00,
2013-02-10 23:22:00,41.2,40.0,29.18,WNW,300,0.0,-999.0,95,-99.99,,,0.27,weatherlink.com 1.10,2013-02-10 23:22:00,
2013-02-10 23:37:00,41.3,40.0,29.18,WNW,300,0.0,-999.0,95,-99.99,,,0.27,weatherlink.com 1.10,2013-02-10 23:37:00,
2013-02-10 23:52:00,41.3,40.0,29.19,WNW,300,0.0,-999.0,95,-99.99,,,0.27,weatherlink.com 1.10,2013-02-10 23:52:00,